Time;durP1;ratioP1;P1;durP2;ratioP2;P2;SDS_P1;SDS_P2;PMS_P1;PMS_P2;Temp;Humidity;BMP_temperature;BMP_pressure;BME280_temperature;BME280_humidity;BME280_pressure;Samples;Min_cycle;Max_cycle;Signal;HPM_P1;HPM_P2
2023/04/07 00:00:54;;;;;;;14.73;10.63;;;8.60;99.90;;;;;;5094561;28;20176;-45
2023/04/07 00:03:20;;;;;;;13.97;10.13;;;8.60;99.90;;;;;;5094807;28;20178;-46
2023/04/07 00:05:46;;;;;;;16.17;10.87;;;8.60;99.90;;;;;;5096148;28;20272;-45
2023/04/07 00:08:11;;;;;;;16.90;11.73;;;8.50;99.90;;;;;;5094629;28;20610;-46
2023/04/07 00:10:37;;;;;;;17.07;11.37;;;8.60;99.90;;;;;;5094372;28;20180;-47
2023/04/07 00:13:03;;;;;;;17.20;9.97;;;8.60;99.90;;;;;;5094190;28;20198;-47
2023/04/07 00:15:28;;;;;;;18.53;12.00;;;8.60;99.90;;;;;;5094312;28;20177;-45
2023/04/07 00:17:55;;;;;;;15.67;10.90;;;8.60;99.90;;;;;;5094303;28;20205;-47
2023/04/07 00:20:20;;;;;;;19.73;12.10;;;8.60;99.90;;;;;;5094273;28;20177;-47
2023/04/07 00:22:47;;;;;;;16.20;11.57;;;8.60;99.90;;;;;;5094287;28;20207;-46
2023/04/07 00:25:12;;;;;;;17.13;10.97;;;8.60;99.90;;;;;;5094419;28;20181;-47
2023/04/07 00:27:38;;;;;;;19.87;13.33;;;8.60;99.90;;;;;;5095679;28;20272;-45
2023/04/07 00:30:04;;;;;;;19.67;12.33;;;8.60;99.90;;;;;;5094363;28;20160;-45
2023/04/07 00:32:30;;;;;;;20.47;12.63;;;8.60;99.90;;;;;;5093863;28;20195;-44
2023/04/07 00:34:55;;;;;;;18.07;12.10;;;8.50;99.90;;;;;;5094298;28;20231;-45
2023/04/07 00:37:21;;;;;;;19.77;13.13;;;8.50;99.90;;;;;;5093923;28;20200;-44
2023/04/07 00:39:46;;;;;;;18.63;12.60;;;8.50;99.90;;;;;;5094217;28;20175;-46
2023/04/07 00:42:12;;;;;;;22.63;12.10;;;8.50;99.90;;;;;;5094156;28;20196;-47
2023/04/07 00:44:37;;;;;;;18.63;13.50;;;8.50;99.90;;;;;;5093798;28;20185;-45
2023/04/07 00:47:03;;;;;;;20.60;12.80;;;8.50;99.90;;;;;;5094130;28;20535;-45
2023/04/07 00:49:30;;;;;;;18.53;13.10;;;8.50;99.90;;;;;;5092718;28;20277;-45
2023/04/07 00:51:57;;;;;;;19.33;13.00;;;8.50;99.90;;;;;;5093844;28;20203;-44
2023/04/07 00:54:23;;;;;;;22.17;13.73;;;8.50;99.90;;;;;;5093892;28;20314;-46
2023/04/07 00:56:49;;;;;;;19.87;13.17;;;8.50;99.90;;;;;;5093837;28;20557;-45
2023/04/07 00:59:15;;;;;;;23.30;14.70;;;8.50;99.90;;;;;;5093730;28;20677;-46
2023/04/07 01:02:05;;;;;;;24.53;15.50;;;8.50;99.90;;;;;;5093517;28;20287;-45
2023/04/07 01:04:32;;;;;;;21.63;14.83;;;8.50;99.90;;;;;;5093878;28;20150;-46
2023/04/07 01:07:04;;;;;;;23.43;13.87;;;8.50;99.90;;;;;;5093510;28;20180;-45
2023/04/07 01:09:38;;;;;;;19.13;12.97;;;8.50;99.90;;;;;;5093825;28;20163;-46
2023/04/07 01:12:39;;;;;;;23.90;14.57;;;8.50;99.90;;;;;;5092205;28;20260;-46
2023/04/07 01:15:10;;;;;;;22.43;13.80;;;8.50;99.90;;;;;;5059882;28;20685;-46
2023/04/07 01:17:41;;;;;;;22.10;13.27;;;8.50;99.90;;;;;;5093495;28;20669;-46
2023/04/07 01:20:11;;;;;;;22.57;13.50;;;8.50;99.90;;;;;;5093621;28;20350;-47
2023/04/07 01:22:49;;;;;;;24.47;14.80;;;8.50;99.90;;;;;;5094110;28;20768;-45
2023/04/07 01:25:34;;;;;;;26.27;14.73;;;8.50;99.90;;;;;;5093812;28;20156;-46
2023/04/07 01:28:00;;;;;;;24.17;14.50;;;8.50;99.90;;;;;;5093573;28;20250;-46
2023/04/07 01:30:31;;;;;;;23.30;14.83;;;8.50;99.90;;;;;;5093418;28;20611;-45
2023/04/07 01:32:59;;;;;;;27.37;16.37;;;8.50;99.90;;;;;;5093242;28;20218;-47
2023/04/07 01:35:28;;;;;;;24.33;14.70;;;8.50;99.90;;;;;;5093560;28;20239;-46
2023/04/07 01:37:54;;;;;;;26.77;16.93;;;8.50;99.90;;;;;;5093222;28;20207;-46
2023/04/07 01:40:21;;;;;;;32.30;17.43;;;8.50;99.90;;;;;;5093552;28;20171;-45
2023/04/07 01:42:48;;;;;;;31.87;17.13;;;8.50;99.90;;;;;;5093104;28;20198;-46
2023/04/07 01:45:16;;;;;;;32.57;17.80;;;8.50;99.90;;;;;;5093195;28;20171;-46
2023/04/07 01:47:43;;;;;;;32.77;17.87;;;8.50;99.90;;;;;;5096020;28;20185;-46
2023/04/07 01:50:10;;;;;;;30.83;17.63;;;8.50;99.90;;;;;;5097381;28;20577;-46
2023/04/07 01:52:37;;;;;;;31.40;18.33;;;8.50;99.90;;;;;;5097023;28;20705;-46
2023/04/07 01:55:04;;;;;;;39.33;19.63;;;8.60;99.90;;;;;;5097464;28;20179;-44
2023/04/07 01:57:29;;;;;;;34.07;17.63;;;8.50;99.90;;;;;;5097152;28;20196;-46
2023/04/07 01:59:55;;;;;;;36.07;20.30;;;8.50;99.90;;;;;;5097469;28;20173;-46
2023/04/07 02:02:21;;;;;;;32.47;18.23;;;8.50;99.90;;;;;;5097668;28;20295;-44
2023/04/07 02:05:01;;;;;;;32.83;17.50;;;8.50;99.90;;;;;;5095669;28;20276;-44
2023/04/07 02:07:34;;;;;;;34.20;19.63;;;8.50;99.90;;;;;;5096770;28;20192;-45
2023/04/07 02:10:02;;;;;;;35.00;18.40;;;8.50;99.90;;;;;;5095433;28;20642;-46
2023/04/07 02:12:29;;;;;;;36.03;18.20;;;8.50;99.90;;;;;;5096641;28;20238;-45
2023/04/07 02:14:55;;;;;;;36.37;20.37;;;8.50;99.90;;;;;;5096866;28;20259;-43
2023/04/07 02:17:26;;;;;;;32.33;18.93;;;8.50;99.90;;;;;;5096746;28;20207;-46
2023/04/07 02:19:53;;;;;;;36.57;20.00;;;8.50;99.90;;;;;;5097042;28;20160;-45
2023/04/07 02:22:18;;;;;;;37.70;19.57;;;8.50;99.90;;;;;;5096390;28;20265;-46
2023/04/07 02:24:44;;;;;;;39.83;20.90;;;8.50;99.90;;;;;;5096414;28;20650;-47
2023/04/07 02:27:10;;;;;;;28.60;18.03;;;8.40;99.90;;;;;;5096345;28;20183;-47
2023/04/07 02:29:35;;;;;;;30.40;19.30;;;8.40;99.90;;;;;;5096504;28;20197;-46
2023/04/07 02:32:01;;;;;;;31.63;18.70;;;8.40;99.90;;;;;;5096673;28;20204;-45
2023/04/07 02:34:27;;;;;;;34.43;20.77;;;8.40;99.90;;;;;;5096255;28;20202;-47
2023/04/07 02:36:52;;;;;;;35.67;20.40;;;8.40;99.90;;;;;;5096436;28;20295;-47
2023/04/07 02:39:18;;;;;;;33.67;19.77;;;8.40;99.90;;;;;;5096590;28;20260;-47
2023/04/07 02:41:43;;;;;;;33.70;20.70;;;8.40;99.90;;;;;;5096418;28;20230;-47
2023/04/07 02:44:09;;;;;;;30.63;18.27;;;8.40;99.90;;;;;;5096423;28;20654;-47
2023/04/07 02:46:35;;;;;;;30.47;17.83;;;8.40;99.90;;;;;;5097743;28;20188;-47
2023/04/07 02:49:00;;;;;;;30.23;17.10;;;8.40;99.90;;;;;;5098548;28;20298;-47
2023/04/07 02:51:26;;;;;;;27.73;18.23;;;8.30;99.90;;;;;;5096284;28;20592;-47
2023/04/07 02:53:52;;;;;;;31.70;18.23;;;8.40;99.90;;;;;;5095841;28;20172;-46
2023/04/07 02:56:17;;;;;;;32.00;17.93;;;8.30;99.90;;;;;;5096055;28;20183;-47
2023/04/07 02:58:43;;;;;;;33.20;19.17;;;8.30;99.90;;;;;;5093373;28;20212;-48
2023/04/07 03:01:09;;;;;;;30.83;17.80;;;8.30;99.90;;;;;;5095730;28;20218;-49
2023/04/07 03:03:34;;;;;;;34.57;18.33;;;8.20;99.90;;;;;;5096462;28;20173;-49
2023/04/07 03:06:00;;;;;;;33.97;19.33;;;8.20;99.90;;;;;;5095842;28;20660;-49
2023/04/07 03:08:26;;;;;;;34.00;19.27;;;8.20;99.90;;;;;;5096529;28;20212;-50
2023/04/07 03:10:51;;;;;;;29.27;18.10;;;8.20;99.90;;;;;;5095696;28;20201;-48
2023/04/07 03:13:18;;;;;;;29.27;19.13;;;8.20;99.90;;;;;;5096018;28;20214;-49
2023/04/07 03:15:44;;;;;;;31.93;20.97;;;8.20;99.90;;;;;;5095326;28;20196;-48
2023/04/07 03:18:10;;;;;;;30.03;16.13;;;8.20;99.90;;;;;;5095574;28;20248;-49
2023/04/07 03:20:36;;;;;;;32.07;19.80;;;8.20;99.90;;;;;;5095332;28;20171;-49
2023/04/07 03:23:02;;;;;;;32.57;18.43;;;8.20;99.90;;;;;;5095764;28;20274;-48
2023/04/07 03:25:28;;;;;;;28.23;18.27;;;8.20;99.90;;;;;;5095135;28;20204;-48
2023/04/07 03:27:53;;;;;;;33.07;18.73;;;8.20;99.90;;;;;;5095537;28;20683;-48
2023/04/07 03:30:19;;;;;;;36.20;20.07;;;8.20;99.90;;;;;;5095353;28;20181;-51
2023/04/07 03:32:45;;;;;;;33.53;19.70;;;8.20;99.90;;;;;;5094913;28;20207;-49
2023/04/07 03:35:10;;;;;;;29.70;18.70;;;8.10;99.90;;;;;;5095076;28;20180;-49
2023/04/07 03:37:36;;;;;;;29.33;18.43;;;8.20;99.90;;;;;;5095231;28;20287;-49
2023/04/07 03:40:02;;;;;;;27.60;17.67;;;8.10;99.90;;;;;;5094921;28;20184;-47
2023/04/07 03:42:27;;;;;;;28.87;18.50;;;8.10;99.90;;;;;;5095117;28;20300;-50
2023/04/07 03:44:53;;;;;;;29.87;18.13;;;8.10;99.90;;;;;;5095040;28;20228;-49
2023/04/07 03:47:18;;;;;;;30.33;16.40;;;8.10;99.90;;;;;;5094814;28;20200;-46
2023/04/07 03:49:44;;;;;;;24.37;15.40;;;8.10;99.90;;;;;;5095064;28;20207;-50
2023/04/07 03:52:10;;;;;;;26.97;17.63;;;8.00;99.90;;;;;;5094861;28;20210;-49
2023/04/07 03:54:35;;;;;;;26.73;16.63;;;8.00;99.90;;;;;;5095199;28;20565;-49
2023/04/07 03:57:01;;;;;;;23.80;15.87;;;8.00;99.90;;;;;;5094503;28;20207;-49
2023/04/07 03:59:27;;;;;;;24.77;16.67;;;8.00;99.90;;;;;;5094911;28;20283;-49
2023/04/07 04:01:53;;;;;;;26.93;16.43;;;8.00;99.90;;;;;;5094440;28;20721;-49
2023/04/07 04:04:18;;;;;;;29.27;16.97;;;8.00;99.90;;;;;;5094540;28;20650;-49
2023/04/07 04:06:44;;;;;;;28.03;16.07;;;8.00;99.90;;;;;;5094666;28;20262;-50
2023/04/07 04:09:10;;;;;;;27.97;16.50;;;8.00;99.90;;;;;;5094453;28;20181;-49
2023/04/07 04:11:36;;;;;;;22.77;14.63;;;8.00;99.90;;;;;;5094563;28;20203;-49
2023/04/07 04:14:01;;;;;;;29.50;17.23;;;8.00;99.90;;;;;;5093301;28;20673;-49
2023/04/07 04:16:27;;;;;;;27.50;16.50;;;8.00;99.90;;;;;;5093575;28;20212;-49
2023/04/07 04:18:53;;;;;;;28.77;18.00;;;8.00;99.90;;;;;;5095622;28;20197;-47
2023/04/07 04:21:18;;;;;;;28.53;17.27;;;8.00;99.90;;;;;;5094891;28;20666;-49
2023/04/07 04:23:44;;;;;;;28.53;17.27;;;8.00;99.90;;;;;;5094955;28;20256;-48
2023/04/07 04:26:09;;;;;;;31.03;19.20;;;8.00;99.90;;;;;;5095321;28;20224;-50
2023/04/07 04:28:35;;;;;;;28.60;17.93;;;8.00;99.90;;;;;;5109978;22;20228;-48
2023/04/07 04:31:01;;;;;;;26.30;17.50;;;8.00;99.90;;;;;;5094442;28;20244;-50
2023/04/07 04:33:26;;;;;;;26.17;16.57;;;7.90;99.90;;;;;;5093937;28;20202;-49
2023/04/07 04:35:52;;;;;;;29.97;18.00;;;7.90;99.90;;;;;;5094448;28;20259;-47
2023/04/07 04:38:18;;;;;;;26.67;16.80;;;7.90;99.90;;;;;;5093798;28;20217;-49
2023/04/07 04:40:43;;;;;;;24.23;15.50;;;7.90;99.90;;;;;;5093840;28;20179;-48
2023/04/07 04:43:09;;;;;;;31.70;17.33;;;7.90;99.90;;;;;;5094034;28;20214;-49
2023/04/07 04:45:35;;;;;;;26.47;17.50;;;7.90;99.90;;;;;;5093773;28;20167;-49
2023/04/07 04:48:01;;;;;;;26.37;16.43;;;7.90;99.90;;;;;;5094053;28;20229;-50
2023/04/07 04:50:26;;;;;;;25.63;16.60;;;7.90;99.90;;;;;;5093989;28;20704;-48
2023/04/07 04:52:52;;;;;;;25.10;17.03;;;7.90;99.90;;;;;;5093650;28;20196;-51
2023/04/07 04:55:18;;;;;;;29.37;17.57;;;7.90;99.90;;;;;;5094193;28;20178;-51
2023/04/07 04:57:43;;;;;;;28.40;17.73;;;7.90;99.90;;;;;;5093999;28;20207;-48
2023/04/07 05:00:09;;;;;;;29.27;17.27;;;7.80;99.90;;;;;;5094304;28;20638;-49
2023/04/07 05:02:36;;;;;;;25.80;16.50;;;7.80;99.90;;;;;;5094340;28;20205;-49
2023/04/07 05:05:02;;;;;;;29.23;17.77;;;7.90;99.90;;;;;;5094315;28;20179;-49
2023/04/07 05:07:28;;;;;;;28.87;17.40;;;7.80;99.90;;;;;;5093567;28;20171;-47
2023/04/07 05:09:54;;;;;;;33.23;17.87;;;7.90;99.90;;;;;;5093436;28;20189;-48
2023/04/07 05:12:20;;;;;;;25.43;15.70;;;7.80;99.90;;;;;;5093578;28;20200;-50
2023/04/07 05:14:46;;;;;;;26.63;14.37;;;7.80;99.90;;;;;;5093647;28;20181;-48
2023/04/07 05:17:11;;;;;;;25.83;13.70;;;7.80;99.90;;;;;;5093570;28;20227;-49
2023/04/07 05:19:37;;;;;;;21.87;13.17;;;7.80;99.90;;;;;;5093414;28;20202;-47
2023/04/07 05:22:02;;;;;;;15.07;9.33;;;7.80;99.90;;;;;;5095161;28;20199;-48
2023/04/07 05:24:28;;;;;;;12.73;7.47;;;7.80;99.90;;;;;;5097540;28;20175;-48
2023/04/07 05:26:55;;;;;;;11.37;7.23;;;7.80;99.90;;;;;;5097795;28;20201;-50
2023/04/07 05:29:21;;;;;;;8.87;5.47;;;7.70;99.90;;;;;;5097487;28;20277;-51
2023/04/07 05:31:46;;;;;;;8.20;5.17;;;7.70;99.90;;;;;;5097555;28;20322;-48
2023/04/07 05:34:12;;;;;;;9.43;4.83;;;7.70;99.90;;;;;;5097350;28;20325;-47
2023/04/07 05:36:37;;;;;;;6.47;4.13;;;7.70;99.90;;;;;;5097263;28;20209;-47
2023/04/07 05:39:03;;;;;;;10.00;5.00;;;7.70;99.90;;;;;;5097252;28;20642;-51
2023/04/07 05:41:28;;;;;;;8.33;4.90;;;7.60;99.90;;;;;;5097150;28;20198;-48
2023/04/07 05:43:54;;;;;;;9.20;5.37;;;7.60;99.90;;;;;;5097736;28;20215;-48
2023/04/07 05:46:20;;;;;;;11.20;5.30;;;7.60;99.90;;;;;;5098214;28;20233;-48
2023/04/07 05:48:45;;;;;;;7.83;4.83;;;7.60;99.90;;;;;;5097153;28;20540;-48
2023/04/07 05:51:11;;;;;;;7.63;4.67;;;7.60;99.90;;;;;;5097622;28;20197;-48
2023/04/07 05:53:36;;;;;;;6.47;4.70;;;7.60;99.90;;;;;;5097554;28;20174;-48
2023/04/07 05:56:02;;;;;;;8.93;5.73;;;7.60;99.90;;;;;;5096927;28;20654;-49
2023/04/07 05:58:27;;;;;;;9.60;5.33;;;7.60;99.90;;;;;;5096765;28;20209;-49
2023/04/07 06:00:53;;;;;;;11.00;5.93;;;7.60;99.90;;;;;;5096801;28;20220;-47
2023/04/07 06:03:18;;;;;;;10.33;5.30;;;7.60;99.90;;;;;;5097049;28;20175;-48
2023/04/07 06:05:47;;;;;;;13.03;6.93;;;7.60;99.90;;;;;;5096745;28;20560;-49
2023/04/07 06:08:13;;;;;;;9.53;6.43;;;7.60;99.90;;;;;;5096714;28;20186;-48
2023/04/07 06:10:40;;;;;;;12.03;6.60;;;7.60;99.90;;;;;;5096926;28;20180;-48
2023/04/07 06:13:06;;;;;;;13.37;6.13;;;7.70;99.90;;;;;;5096855;28;20205;-50
2023/04/07 06:15:32;;;;;;;10.47;6.27;;;7.70;99.90;;;;;;5096829;28;20171;-48
2023/04/07 06:17:58;;;;;;;9.47;6.00;;;7.70;99.90;;;;;;5096434;28;20285;-50
2023/04/07 06:20:24;;;;;;;7.30;5.67;;;7.70;99.90;;;;;;5096783;28;20213;-48
2023/04/07 06:22:49;;;;;;;9.07;5.97;;;7.70;99.90;;;;;;5096698;28;20308;-48
2023/04/07 06:25:15;;;;;;;8.93;6.13;;;7.70;99.90;;;;;;5096911;28;20195;-48
2023/04/07 06:27:41;;;;;;;11.37;5.83;;;7.70;99.90;;;;;;5096864;28;20183;-49
2023/04/07 06:30:07;;;;;;;10.37;5.67;;;7.70;99.90;;;;;;5096433;28;20198;-49
2023/04/07 06:32:32;;;;;;;9.67;6.10;;;7.70;99.90;;;;;;5096303;28;20210;-48
2023/04/07 06:34:58;;;;;;;12.43;6.30;;;7.70;99.90;;;;;;5096190;28;20205;-47
2023/04/07 06:37:24;;;;;;;15.47;6.50;;;7.80;99.90;;;;;;5096139;28;20701;-49
2023/04/07 06:39:50;;;;;;;12.63;7.00;;;7.80;99.90;;;;;;5096408;28;20536;-48
2023/04/07 06:42:16;;;;;;;16.23;8.40;;;7.80;99.90;;;;;;5095989;28;20190;-48
2023/04/07 06:44:41;;;;;;;14.70;8.90;;;7.80;99.90;;;;;;5096274;28;20175;-49
2023/04/07 06:47:07;;;;;;;13.70;8.50;;;7.80;99.90;;;;;;5095987;28;20266;-49
2023/04/07 06:49:33;;;;;;;16.50;9.10;;;7.80;99.90;;;;;;5096233;28;20317;-49
2023/04/07 06:51:59;;;;;;;13.73;8.10;;;7.90;99.90;;;;;;5096075;28;20218;-49
2023/04/07 06:54:24;;;;;;;12.30;7.30;;;7.90;99.90;;;;;;5096130;28;20642;-49
2023/04/07 06:56:50;;;;;;;15.67;7.17;;;7.90;99.90;;;;;;5096277;28;20279;-50
2023/04/07 06:59:16;;;;;;;10.13;6.93;;;7.90;99.90;;;;;;5095974;28;20635;-48
2023/04/07 07:01:42;;;;;;;11.73;7.27;;;7.90;99.90;;;;;;5095638;28;20194;-49
2023/04/07 07:04:08;;;;;;;15.90;8.20;;;7.90;99.90;;;;;;5095971;28;20181;-49
2023/04/07 07:06:34;;;;;;;12.93;7.40;;;7.90;99.90;;;;;;5095625;28;20175;-49
2023/04/07 07:09:01;;;;;;;10.47;6.67;;;8.00;99.90;;;;;;5095514;28;20176;-49
2023/04/07 07:11:27;;;;;;;13.00;6.87;;;8.00;99.90;;;;;;5095978;28;20200;-51
2023/04/07 07:13:52;;;;;;;11.60;6.43;;;8.00;99.90;;;;;;5095723;28;20178;-50
2023/04/07 07:16:18;;;;;;;9.90;6.17;;;8.00;99.90;;;;;;5095547;28;20169;-49
2023/04/07 07:18:43;;;;;;;12.73;6.37;;;8.10;99.90;;;;;;5095366;28;20228;-49
2023/04/07 07:21:09;;;;;;;11.77;7.57;;;8.10;99.90;;;;;;5095315;28;20204;-49
2023/04/07 07:23:35;;;;;;;13.47;7.90;;;8.20;99.90;;;;;;5095256;28;20187;-50
2023/04/07 07:26:01;;;;;;;10.40;6.50;;;8.20;99.90;;;;;;5095816;28;20189;-45
2023/04/07 07:28:28;;;;;;;12.70;7.70;;;8.30;99.90;;;;;;5095150;28;20248;-44
2023/04/07 07:30:53;;;;;;;17.57;7.60;;;8.30;99.90;;;;;;5095372;28;20167;-42
2023/04/07 07:33:21;;;;;;;16.83;8.00;;;8.30;99.90;;;;;;5095205;28;20171;-44
2023/04/07 07:35:47;;;;;;;13.17;7.87;;;8.30;99.90;;;;;;5095017;28;20174;-45
2023/04/07 07:38:12;;;;;;;16.37;7.87;;;8.40;99.90;;;;;;5094942;28;20205;-44
2023/04/07 07:40:38;;;;;;;15.23;8.60;;;8.40;99.90;;;;;;5094901;28;20176;-44
2023/04/07 07:43:04;;;;;;;17.20;9.53;;;8.40;99.90;;;;;;5095050;28;20291;-45
2023/04/07 07:45:30;;;;;;;16.57;9.30;;;8.40;99.90;;;;;;5094476;28;20270;-43
2023/04/07 07:47:56;;;;;;;15.73;8.67;;;8.40;99.90;;;;;;5094800;28;20257;-48
2023/04/07 07:50:21;;;;;;;13.53;8.90;;;8.40;99.90;;;;;;5095099;28;20534;-48
2023/04/07 07:52:47;;;;;;;20.23;10.97;;;8.40;99.90;;;;;;5095324;28;20204;-48
2023/04/07 07:55:13;;;;;;;18.73;11.40;;;8.50;99.90;;;;;;5094956;28;20688;-49
2023/04/07 07:57:38;;;;;;;19.47;13.30;;;8.50;99.90;;;;;;5094910;28;20216;-47
2023/04/07 08:00:05;;;;;;;27.80;21.50;;;8.50;99.90;;;;;;5095389;28;20194;-49
2023/04/07 08:02:32;;;;;;;29.37;20.53;;;8.50;99.90;;;;;;5094621;28;20684;-48
2023/04/07 08:04:58;;;;;;;15.83;10.60;;;8.50;99.90;;;;;;5094484;28;20221;-47
2023/04/07 08:07:24;;;;;;;36.13;26.77;;;8.50;99.90;;;;;;5094401;28;20179;-49
2023/04/07 08:09:50;;;;;;;25.93;19.67;;;8.50;99.90;;;;;;5094367;28;20200;-48
2023/04/07 08:12:15;;;;;;;22.03;15.07;;;8.50;99.90;;;;;;5094300;28;20243;-48
2023/04/07 08:14:41;;;;;;;21.47;12.87;;;8.50;99.90;;;;;;5094601;28;20247;-48
2023/04/07 08:17:06;;;;;;;19.40;10.77;;;8.50;99.90;;;;;;5094421;28;20206;-47
2023/04/07 08:19:32;;;;;;;21.33;10.90;;;8.50;99.90;;;;;;5094741;28;20178;-47
2023/04/07 08:21:57;;;;;;;22.87;11.67;;;8.50;99.90;;;;;;5094098;28;20243;-48
2023/04/07 08:24:23;;;;;;;22.60;12.53;;;8.50;99.90;;;;;;5094162;28;20231;-49
2023/04/07 08:26:49;;;;;;;26.40;12.47;;;8.60;99.90;;;;;;5094408;28;20235;-48
2023/04/07 08:29:15;;;;;;;20.63;12.03;;;8.60;99.90;;;;;;5094212;28;20190;-49
2023/04/07 08:31:40;;;;;;;24.80;12.30;;;8.60;99.90;;;;;;5094216;28;20556;-47
2023/04/07 08:34:06;;;;;;;20.83;12.53;;;8.60;99.90;;;;;;5093959;28;20265;-47
2023/04/07 08:36:31;;;;;;;26.57;13.07;;;8.70;99.90;;;;;;5093884;28;20266;-49
2023/04/07 08:39:00;;;;;;;24.70;12.80;;;8.70;99.90;;;;;;5094201;28;20601;-48
2023/04/07 08:41:38;;;;;;;24.00;13.77;;;8.70;99.90;;;;;;5093786;28;20693;-48
2023/04/07 08:44:04;;;;;;;23.17;13.27;;;8.70;99.90;;;;;;5094181;28;20182;-49
2023/04/07 08:46:32;;;;;;;28.97;14.07;;;8.70;99.90;;;;;;5094044;28;20174;-48
2023/04/07 08:48:59;;;;;;;23.23;14.07;;;8.70;99.90;;;;;;5094039;28;20269;-47
2023/04/07 08:51:32;;;;;;;25.50;14.30;;;8.70;99.90;;;;;;5093586;28;20197;-50
2023/04/07 08:54:17;;;;;;;29.23;15.13;;;8.70;99.90;;;;;;5093674;28;20174;-51
2023/04/07 08:56:43;;;;;;;24.83;15.00;;;8.70;99.90;;;;;;5092266;28;20221;-51
2023/04/07 08:59:14;;;;;;;23.50;13.60;;;8.70;99.90;;;;;;5093617;28;20195;-51
2023/04/07 09:01:40;;;;;;;27.37;15.70;;;8.80;99.90;;;;;;5093938;28;20699;-50
2023/04/07 09:04:09;;;;;;;27.37;14.10;;;8.80;99.90;;;;;;5092495;28;20173;-50
2023/04/07 09:06:35;;;;;;;26.50;13.17;;;8.90;99.90;;;;;;5093583;28;20181;-52
2023/04/07 09:09:02;;;;;;;26.57;15.33;;;8.90;99.90;;;;;;5093564;28;20169;-51
2023/04/07 09:11:29;;;;;;;31.60;15.20;;;9.00;99.90;;;;;;5093660;28;20208;-51
2023/04/07 09:13:55;;;;;;;27.20;14.90;;;9.10;99.90;;;;;;5093462;28;20257;-52
2023/04/07 09:16:22;;;;;;;32.30;14.80;;;9.10;99.90;;;;;;5093405;28;20182;-51
2023/04/07 09:18:48;;;;;;;30.80;15.53;;;9.20;99.90;;;;;;5093342;28;20185;-51
2023/04/07 09:21:13;;;;;;;22.23;13.43;;;9.20;99.90;;;;;;5093562;28;20194;-51
2023/04/07 09:23:41;;;;;;;25.03;14.33;;;9.30;99.90;;;;;;5093949;28;20177;-52
2023/04/07 09:26:27;;;;;;;20.67;10.67;;;9.30;99.90;;;;;;5093882;28;20500;-52
2023/04/07 09:28:54;;;;;;;19.40;11.57;;;9.30;99.90;;;;;;5093342;28;20574;-52
2023/04/07 09:31:22;;;;;;;23.10;12.83;;;9.20;99.90;;;;;;5093157;28;20250;-50
2023/04/07 09:33:48;;;;;;;18.70;11.77;;;9.20;99.90;;;;;;5093220;28;20189;-52
2023/04/07 09:36:14;;;;;;;21.87;12.10;;;9.10;99.90;;;;;;5093772;28;20178;-52
2023/04/07 09:38:42;;;;;;;20.43;12.20;;;9.10;99.90;;;;;;5091821;28;20214;-51
2023/04/07 09:41:15;;;;;;;20.77;12.80;;;9.00;99.90;;;;;;5093094;28;20237;-53
2023/04/07 09:43:47;;;;;;;22.60;12.93;;;9.10;99.90;;;;;;5093723;28;20227;-50
2023/04/07 09:46:17;;;;;;;23.23;12.23;;;9.20;99.90;;;;;;5093898;28;20630;-51
2023/04/07 09:48:44;;;;;;;24.70;12.10;;;9.20;99.90;;;;;;5093545;28;20217;-51
2023/04/07 09:51:14;;;;;;;18.53;11.27;;;9.40;99.90;;;;;;5091855;28;20251;-52
2023/04/07 09:53:45;;;;;;;17.90;10.83;;;9.50;99.90;;;;;;5093385;28;20183;-53
2023/04/07 09:56:10;;;;;;;18.87;10.13;;;9.60;99.90;;;;;;5093353;28;20187;-52
2023/04/07 09:58:39;;;;;;;17.40;10.43;;;9.70;99.90;;;;;;5093207;28;20244;-53
2023/04/07 10:01:07;;;;;;;16.20;9.67;;;9.70;99.90;;;;;;5093197;28;20206;-50
2023/04/07 10:03:33;;;;;;;18.63;10.80;;;9.60;99.90;;;;;;5093239;28;20190;-51
2023/04/07 10:06:02;;;;;;;16.73;9.50;;;9.60;99.90;;;;;;5093241;28;20171;-52
2023/04/07 10:08:30;;;;;;;18.10;9.53;;;9.60;99.90;;;;;;5095311;28;20533;-51
2023/04/07 10:10:56;;;;;;;17.23;8.70;;;9.50;99.90;;;;;;5096879;28;20202;-52
2023/04/07 10:13:24;;;;;;;14.73;8.83;;;9.50;99.90;;;;;;5096643;28;20220;-51
2023/04/07 10:15:50;;;;;;;16.90;9.00;;;9.50;99.90;;;;;;5096844;28;20234;-51
2023/04/07 10:18:19;;;;;;;15.30;9.80;;;9.60;99.90;;;;;;5096577;28;20615;-52
2023/04/07 10:20:46;;;;;;;18.70;9.70;;;9.60;99.90;;;;;;5096662;28;20198;-51
2023/04/07 10:23:21;;;;;;;19.17;10.27;;;9.70;99.90;;;;;;5096448;28;20171;-51
2023/04/07 10:25:49;;;;;;;18.93;10.20;;;9.80;99.90;;;;;;5096691;28;20175;-51
2023/04/07 10:28:15;;;;;;;11.93;8.37;;;9.80;99.90;;;;;;5096588;28;20232;-50
2023/04/07 10:30:42;;;;;;;13.73;8.63;;;9.90;99.90;;;;;;5096549;28;20224;-52
2023/04/07 10:33:07;;;;;;;14.83;8.63;;;10.00;99.90;;;;;;5096148;28;20195;-52
2023/04/07 10:38:12;;;;;;;14.40;9.27;;;10.10;99.90;;;;;;5053834;28;20224;-52
2023/04/07 10:40:39;;;;;;;15.00;8.57;;;10.10;99.90;;;;;;5055914;28;20164;-52
2023/04/07 10:43:10;;;;;;;15.03;8.67;;;10.00;99.90;;;;;;5056606;28;20192;-51
2023/04/07 10:45:44;;;;;;;13.27;8.47;;;9.90;99.90;;;;;;5056097;28;20160;-52
2023/04/07 10:48:11;;;;;;;16.40;8.27;;;9.90;99.90;;;;;;5055975;28;20258;-52
2023/04/07 10:50:37;;;;;;;15.87;8.67;;;9.80;99.90;;;;;;5055712;28;20542;-51
2023/04/07 10:53:11;;;;;;;13.37;9.13;;;9.80;99.90;;;;;;5055643;28;20196;-53
2023/04/07 10:55:44;;;;;;;17.80;9.03;;;9.70;99.90;;;;;;5055861;28;20192;-53
2023/04/07 10:58:22;;;;;;;11.37;7.97;;;9.70;99.90;;;;;;5055511;28;20659;-53
2023/04/07 11:01:06;;;;;;;15.50;9.13;;;9.70;99.90;;;;;;5056247;28;20200;-51
2023/04/07 11:03:37;;;;;;;13.73;9.30;;;9.70;99.90;;;;;;5055859;28;20156;-50
2023/04/07 11:06:04;;;;;;;13.67;8.97;;;9.80;99.90;;;;;;5055661;28;20169;-53
2023/04/07 11:08:43;;;;;;;13.23;9.23;;;9.90;99.90;;;;;;5055497;28;20183;-53
2023/04/07 11:11:11;;;;;;;15.80;9.87;;;10.00;99.90;;;;;;5054026;28;20200;-53
2023/04/07 11:13:42;;;;;;;14.53;9.00;;;10.00;99.90;;;;;;5055369;28;20184;-53
2023/04/07 11:16:08;;;;;;;19.27;9.63;;;10.10;99.90;;;;;;5055488;28;20179;-54
2023/04/07 11:18:36;;;;;;;20.93;10.23;;;10.10;99.90;;;;;;5055096;28;20287;-53
2023/04/07 11:21:04;;;;;;;15.17;8.80;;;10.00;99.90;;;;;;5054778;28;20210;-52
2023/04/07 11:23:40;;;;;;;12.50;8.40;;;10.10;99.90;;;;;;5056398;28;20164;-46
2023/04/07 11:26:07;;;;;;;11.27;8.07;;;10.10;99.90;;;;;;5055598;28;20160;-46
2023/04/07 11:28:33;;;;;;;10.57;7.20;;;10.10;99.90;;;;;;5056135;28;20176;-51
2023/04/07 11:30:59;;;;;;;16.97;8.47;;;10.10;99.90;;;;;;5055183;28;20204;-53
2023/04/07 11:33:26;;;;;;;18.90;8.00;;;10.10;99.90;;;;;;5055101;28;20184;-47
2023/04/07 11:35:58;;;;;;;13.77;8.03;;;10.10;99.90;;;;;;5055146;28;20172;-51
2023/04/07 11:38:28;;;;;;;12.37;7.13;;;10.10;99.90;;;;;;5055299;28;20196;-51
2023/04/07 11:40:55;;;;;;;10.00;7.43;;;10.20;99.90;;;;;;5054741;28;20255;-52
2023/04/07 11:43:26;;;;;;;14.13;7.27;;;10.20;99.90;;;;;;5054658;28;20179;-51
2023/04/07 11:46:12;;;;;;;13.60;6.90;;;10.10;99.90;;;;;;5055004;28;20172;-52
2023/04/07 11:48:40;;;;;;;16.10;7.77;;;10.10;99.90;;;;;;5055053;28;20247;-47
2023/04/07 11:51:18;;;;;;;9.57;6.80;;;10.10;99.90;;;;;;5054599;28;20204;-52
2023/04/07 11:53:44;;;;;;;12.30;6.03;;;10.20;99.90;;;;;;5054540;28;20167;-51
2023/04/07 11:56:15;;;;;;;10.37;6.50;;;10.20;99.90;;;;;;5054737;28;20168;-50
2023/04/07 11:58:48;;;;;;;8.77;5.57;;;10.20;99.90;;;;;;5055534;28;20203;-52
2023/04/07 12:01:13;;;;;;;10.40;6.17;;;10.20;99.90;;;;;;5054352;28;20220;-51
2023/04/07 12:03:57;;;;;;;9.80;6.03;;;10.20;99.90;;;;;;5054354;28;20257;-51
2023/04/07 12:06:33;;;;;;;12.63;5.90;;;10.30;99.90;;;;;;5054575;28;20165;-50
2023/04/07 12:09:03;;;;;;;10.93;5.43;;;10.30;99.90;;;;;;5054566;28;20239;-51
2023/04/07 12:11:29;;;;;;;9.33;5.87;;;10.40;99.90;;;;;;5054094;28;20651;-51
2023/04/07 12:13:55;;;;;;;6.80;5.20;;;10.40;99.90;;;;;;5055029;28;20187;-50
2023/04/07 12:16:21;;;;;;;10.27;5.27;;;10.50;99.90;;;;;;5054141;28;20202;-51
2023/04/07 12:18:48;;;;;;;11.17;5.47;;;10.50;99.90;;;;;;5054225;28;20212;-50
2023/04/07 12:21:13;;;;;;;8.47;5.70;;;10.60;99.90;;;;;;5054225;28;20211;-49
2023/04/07 12:23:39;;;;;;;8.43;5.60;;;10.50;99.90;;;;;;5054337;28;20172;-49
2023/04/07 12:26:05;;;;;;;10.20;5.67;;;10.60;99.90;;;;;;5054228;28;20214;-51
2023/04/07 12:28:31;;;;;;;9.63;6.23;;;10.50;99.90;;;;;;5054707;28;20180;-51
2023/04/07 12:30:57;;;;;;;13.77;6.70;;;10.50;99.90;;;;;;5053625;28;20591;-49
2023/04/07 12:33:23;;;;;;;11.00;5.90;;;10.60;99.90;;;;;;5053922;28;20639;-49
2023/04/07 12:35:49;;;;;;;9.10;6.03;;;10.70;99.90;;;;;;5053571;28;20238;-50
2023/04/07 12:38:14;;;;;;;7.77;5.33;;;10.80;99.90;;;;;;5053816;28;20200;-50
2023/04/07 12:40:40;;;;;;;10.33;5.60;;;10.80;99.90;;;;;;5053678;28;20514;-49
2023/04/07 12:43:06;;;;;;;9.70;5.90;;;10.90;99.90;;;;;;5053742;28;20635;-50